METAR Data
IDs: Format: Raw Decoded Include TAF

Data at: 1422 UTC 16 Aug 2022

KDLO 161415Z AUTO 00000KT 7SM CLR 19/09 A2980 RMK AO2 T01930093
KDLO 161355Z AUTO 00000KT 10SM CLR 17/10 A2980 RMK AO2 T01720101
KDLO 161335Z AUTO 15004KT 5SM HZ CLR 18/10 A2980 RMK AO2 T01790098
KDLO 161315Z AUTO 00000KT 10SM CLR 17/09 A2980 RMK AO2 T01710093
KDLO 161255Z AUTO 00000KT 10SM CLR 17/10 A2979 RMK AO2 T01740097
KDLO 161235Z AUTO 16003KT 10SM CLR 18/10 A2978 RMK AO2 T01800099
KDLO 161215Z AUTO 00000KT 10SM CLR 18/10 A2978 RMK AO2 T01760096
KDLO 161155Z AUTO 00000KT 10SM CLR 18/10 A2978 RMK AO2 T01790100 10227 20173
KDLO 161135Z AUTO 00000KT 10SM CLR 18/10 A2978 RMK AO2 T01770101
KDLO 161115Z AUTO 14003KT 10SM CLR 18/11 A2978 RMK AO2 T01760105
KDLO 161055Z AUTO 14004KT 10SM CLR 18/11 A2978 RMK AO2 T01820106
KDLO 161035Z AUTO 16003KT 10SM CLR 19/11 A2978 RMK AO2 T01900107
KDLO 161015Z AUTO 14003KT 10SM CLR 18/12 A2978 RMK AO2 T01800115
KDLO 160955Z AUTO 14004KT 10SM CLR 18/11 A2978 RMK AO2 T01800112
KDLO 160935Z AUTO 14003KT 10SM CLR 18/11 A2978 RMK AO2 T01830113
KDLO 160915Z AUTO 14003KT 10SM CLR 19/11 A2978 RMK AO2 T01890107
KDLO 160855Z AUTO 15003KT 10SM CLR 20/12 A2978 RMK AO2 T02010120
KDLO 160835Z AUTO 00000KT 10SM CLR 20/12 A2978 RMK AO2 T02010123
KDLO 160815Z AUTO 00000KT 10SM CLR 22/14 A2979 RMK AO2 T02160135
KDLO 160755Z AUTO 00000KT 10SM CLR 22/13 A2979 RMK AO2 T02150127 403750152
KDLO 160735Z AUTO 00000KT 10SM CLR 22/12 A2979 RMK AO2 T02170122
KDLO 160715Z AUTO 00000KT 10SM CLR 22/13 A2979 RMK AO2 T02180125
KDLO 160655Z AUTO 00000KT 10SM CLR 22/13 A2979 RMK AO2 T02220130
KDLO 160635Z AUTO 00000KT 10SM CLR 23/13 A2979 RMK AO2 T02260133
KDLO 160615Z AUTO 00000KT 10SM CLR 23/14 A2978 RMK AO2 T02260138
KDLO 160555Z AUTO 11003KT 10SM CLR 23/14 A2979 RMK AO2 T02260141 10374 20226
KDLO 160535Z AUTO 00000KT 10SM CLR 23/14 A2978 RMK AO2 T02340137
KDLO 160515Z AUTO 13003KT 10SM CLR 24/14 A2978 RMK AO2 T02440138
KDLO 160455Z AUTO 00000KT 10SM CLR 25/13 A2978 RMK AO2 T02520131
KDLO 160435Z AUTO 14003KT 10SM CLR 26/13 A2978 RMK AO2 T02580132
KDLO 160415Z AUTO 00000KT 10SM CLR 27/14 A2977 RMK AO2 T02690136
KDLO 160355Z AUTO 00000KT 10SM CLR 30/11 A2976 RMK AO2 T02980106
KDLO 160335Z AUTO 00000KT 10SM CLR 32/07 A2975 RMK AO2 T03200074
KDLO 160315Z AUTO 00000KT 10SM CLR 32/09 A2975 RMK AO2 T03170087
KDLO 160255Z AUTO 00000KT 10SM CLR 33/08 A2975 RMK AO2 T03300075
KDLO 160235Z AUTO 00000KT 10SM CLR 34/07 A2974 RMK AO2 T03360066
KDLO 160215Z AUTO 02003KT 10SM CLR 36/04 A2974 RMK AO2 T03550036
KDLO 160155Z AUTO 36008KT 10SM CLR 36/02 A2974 RMK AO2 T03610024
KDLO 160135Z AUTO 36007KT 10SM CLR 37/03 A2973 RMK AO2 T03650025
KDLO 160115Z AUTO 35006KT 10SM CLR 36/04 A2974 RMK AO2 T03630038
KDLO 160055Z AUTO 35008KT 10SM CLR 37/03 A2974 RMK AO2 T03680025
KDLO 160035Z AUTO 34005KT 10SM CLR 37/02 A2974 RMK AO2 T03670023
KDLO 160015Z AUTO 34006KT 10SM CLR 37/M01 A2975 RMK AO2 T03711007
KDLO 152355Z AUTO 01008KT 10SM CLR 37/M01 A2975 RMK AO2 T03691010 10373 20291
KDLO 152335Z AUTO 02004KT 10SM CLR 37/00 A2975 RMK AO2 T03701003
KDLO 152315Z AUTO 36010KT 10SM CLR 37/01 A2975 RMK AO2 T03690005
KDLO 152255Z AUTO 36007KT 10SM CLR 37/01 A2976 RMK AO2 T03690005
KDLO 152235Z AUTO 36008KT 10SM CLR 37/01 A2976 RMK AO2 T03680009
KDLO 152215Z AUTO 36003KT 10SM CLR 36/02 A2977 RMK AO2 T03610016
KDLO 152155Z AUTO 02007KT 10SM CLR 36/02 A2978 RMK AO2 T03630017
KDLO 152135Z AUTO 04008KT 10SM CLR 36/02 A2979 RMK AO2 T03570019
KDLO 152115Z AUTO 01006KT 10SM CLR 36/02 A2979 RMK AO2 T03560021
KDLO 152055Z AUTO 01005KT 10SM CLR 35/03 A2980 RMK AO2 T03510029
KDLO 152035Z AUTO 00000KT 10SM CLR 34/03 A2981 RMK AO2 T03420027
KDLO 152015Z AUTO 34004KT 10SM CLR 34/02 A2982 RMK AO2 T03350024
KDLO 151955Z AUTO 01006KT 10SM CLR 33/03 A2982 RMK AO2 T03340030
KDLO 151935Z AUTO 32007KT 10SM CLR 33/04 A2983 RMK AO2 T03250038
KDLO 151915Z AUTO 00000KT 10SM CLR 32/05 A2984 RMK AO2 T03180046
KDLO 151855Z AUTO 35006KT 10SM CLR 31/04 A2985 RMK AO2 T03120038
KDLO 151835Z AUTO 31005KT 10SM CLR 31/05 A2985 RMK AO2 T03090045
KDLO 151815Z AUTO 00000KT 10SM CLR 30/06 A2986 RMK AO2 T02980064
KDLO 151755Z AUTO 28003KT 10SM CLR 29/07 A2986 RMK AO2 T02940072 10294 20152
KDLO 151735Z AUTO 00000KT 10SM CLR 29/06 A2986 RMK AO2 T02870061
KDLO 151715Z AUTO 30003KT 10SM CLR 28/06 A2986 RMK AO2 T02790057
KDLO 151655Z AUTO 00000KT 10SM CLR 28/07 A2986 RMK AO2 T02750068
KDLO 151635Z AUTO 00000KT 10SM CLR 27/07 A2986 RMK AO2 T02700070
KDLO 151615Z AUTO 21003KT 10SM CLR 27/06 A2986 RMK AO2 T02660061
KDLO 151555Z AUTO 23005KT 10SM CLR 26/06 A2986 RMK AO2 T02630059
KDLO 151535Z AUTO 20005KT 10SM CLR 26/07 A2987 RMK AO2 T02550068
KDLO 151515Z AUTO 21003KT 10SM CLR 24/07 A2986 RMK AO2 T02440072
KDLO 151455Z AUTO 00000KT 10SM CLR 23/08 A2986 RMK AO2 T02250079
KDLO 151435Z AUTO 18003KT 10SM CLR 20/08 A2986 RMK AO2 T02010083
KDLO 151415Z AUTO 16004KT 10SM CLR 18/09 A2986 RMK AO2 T01840086
KDLO 151355Z AUTO 16004KT 10SM CLR 18/08 A2985 RMK AO2 T01800083
KDLO 151335Z AUTO 16004KT 10SM CLR 16/09 A2985 RMK AO2 T01640089
KDLO 151315Z AUTO 15004KT 10SM CLR 16/09 A2985 RMK AO2 T01640092
KDLO 151255Z AUTO 16004KT 10SM CLR 17/10 A2985 RMK AO2 T01660095
KDLO 151235Z AUTO 16003KT 10SM CLR 15/09 A2985 RMK AO2 T01530093
KDLO 151215Z AUTO 00000KT 10SM CLR 17/09 A2984 RMK AO2 T01720086
KDLO 151155Z AUTO 00000KT 10SM CLR 19/10 A2984 RMK AO2 T01860095 10221 20172
KDLO 151135Z AUTO 00000KT 10SM CLR 18/09 A2985 RMK AO2 T01760091
KDLO 151110Z AUTO 00000KT 10SM CLR 19/09 A2985 RMK AO2 T01900092
KDLO 151055Z AUTO 00000KT 10SM CLR 19/09 A2985 RMK AO2 T01870094
KDLO 151035Z AUTO 17003KT 10SM CLR 18/10 A2985 RMK AO2 T01840100
KDLO 151015Z AUTO 00000KT 10SM CLR 18/10 A2985 RMK AO2 T01760103
KDLO 150955Z AUTO 00000KT 10SM CLR 18/11 A2984 RMK AO2 T01750106
KDLO 150935Z AUTO 00000KT 10SM CLR 18/11 A2985 RMK AO2 T01750113
KDLO 150915Z AUTO 00000KT 10SM CLR 18/11 A2985 RMK AO2 T01770113
KDLO 150855Z AUTO 00000KT 10SM CLR 18/11 A2985 RMK AO2 T01780110
KDLO 150835Z AUTO 00000KT 10SM CLR 19/11 A2985 RMK AO2 T01890106
KDLO 150815Z AUTO 00000KT 10SM CLR 21/12 A2985 RMK AO2 T02100115
KDLO 150755Z AUTO 00000KT 10SM CLR 20/11 A2986 RMK AO2 T02030113 403630162
KDLO 150735Z AUTO 00000KT 10SM CLR 21/12 A2986 RMK AO2 T02070119
KDLO 150715Z AUTO 00000KT 10SM CLR 21/13 A2986 RMK AO2 T02060131
KDLO 150655Z AUTO 12003KT 10SM CLR 21/14 A2986 RMK AO2 T02100137
KDLO 150635Z AUTO 00000KT 10SM CLR 21/13 A2986 RMK AO2 T02110129
KDLO 150615Z AUTO 00000KT 10SM CLR 22/14 A2985 RMK AO2 T02170135
KDLO 150555Z AUTO 00000KT 10SM CLR 23/14 A2985 RMK AO2 T02250139 10360 20221
KDLO 150535Z AUTO 00000KT 10SM CLR 22/14 A2986 RMK AO2 T02230142
KDLO 150515Z AUTO 00000KT 10SM CLR 23/13 A2985 RMK AO2 T02270125
KDLO 150455Z AUTO 00000KT 10SM CLR 24/12 A2985 RMK AO2 T02420121
KDLO 150435Z AUTO 00000KT 10SM CLR 26/12 A2984 RMK AO2 T02600118
KDLO 150415Z AUTO 00000KT 10SM CLR 26/10 A2984 RMK AO2 T02590104
KDLO 150355Z AUTO 00000KT 10SM CLR 30/07 A2983 RMK AO2 T03000065
KDLO 150335Z AUTO 00000KT 10SM CLR 31/06 A2983 RMK AO2 T03060064
KDLO 150315Z AUTO 00000KT 10SM CLR 32/06 A2983 RMK AO2 T03190056
KDLO 150255Z AUTO 00000KT 10SM CLR 33/05 A2982 RMK AO2 T03290052
KDLO 150235Z AUTO 00000KT 10SM CLR 33/06 A2982 RMK AO2 T03290062